Time;durP1;ratioP1;P1;durP2;ratioP2;P2;SDS_P1;SDS_P2;PMS_P1;PMS_P2;Temp;Humidity;BMP_temperature;BMP_pressure;BME280_temperature;BME280_humidity;BME280_pressure;Samples;Min_cycle;Max_cycle;Signal;HPM_P1;HPM_P2
2022/10/21 00:00:19;;;;;;;31.38;19.73;;;;;;;;;;5030943;28;20049;-63
2022/10/21 00:02:45;;;;;;;27.70;20.97;;;;;;;;;;5028647;28;20041;-61
2022/10/21 00:05:10;;;;;;;30.73;22.20;;;;;;;;;;5030450;28;20494;-61
2022/10/21 00:07:35;;;;;;;35.78;21.45;;;;;;;;;;5029145;28;20029;-61
2022/10/21 00:10:01;;;;;;;40.45;21.63;;;;;;;;;;5030485;28;20488;-61
2022/10/21 00:12:27;;;;;;;24.90;20.55;;;;;;;;;;5029066;28;20404;-61
2022/10/21 00:14:52;;;;;;;26.15;19.23;;;;;;;;;;5031079;28;20109;-61
2022/10/21 00:17:18;;;;;;;26.73;19.08;;;;;;;;;;5028979;28;20134;-61
2022/10/21 00:19:43;;;;;;;24.63;20.10;;;;;;;;;;5030101;28;20041;-61
2022/10/21 00:22:08;;;;;;;25.57;18.13;;;;;;;;;;5029251;28;20048;-62
2022/10/21 00:24:33;;;;;;;33.10;20.42;;;;;;;;;;5030087;28;20017;-62
2022/10/21 00:26:58;;;;;;;22.07;18.27;;;;;;;;;;5028839;28;20330;-62
2022/10/21 00:29:23;;;;;;;39.70;21.27;;;;;;;;;;5030449;28;20417;-62
2022/10/21 00:31:51;;;;;;;29.03;19.87;;;;;;;;;;5028750;28;20030;-62
2022/10/21 00:34:16;;;;;;;26.90;21.67;;;;;;;;;;5030746;28;20021;-62
2022/10/21 00:36:41;;;;;;;24.40;18.95;;;;;;;;;;5031286;28;20049;-62
2022/10/21 00:39:06;;;;;;;28.33;22.05;;;;;;;;;;5033917;28;20029;-62
2022/10/21 00:41:32;;;;;;;26.60;19.43;;;;;;;;;;5032176;28;20064;-62
2022/10/21 00:44:00;;;;;;;44.03;20.48;;;;;;;;;;5033953;28;20091;-62
2022/10/21 00:46:34;;;;;;;29.60;21.63;;;;;;;;;;5032397;28;20053;-62
2022/10/21 00:49:00;;;;;;;35.50;21.20;;;;;;;;;;5034423;28;20013;-62
2022/10/21 00:51:25;;;;;;;34.95;21.75;;;;;;;;;;5032661;28;20032;-61
2022/10/21 00:53:51;;;;;;;31.70;22.92;;;;;;;;;;5033787;28;20419;-61
2022/10/21 00:56:27;;;;;;;31.75;23.00;;;;;;;;;;5033243;28;20049;-61
2022/10/21 00:58:53;;;;;;;31.02;21.63;;;;;;;;;;5032627;28;20084;-61
2022/10/21 01:01:19;;;;;;;29.98;22.88;;;;;;;;;;5033630;28;20029;-61
2022/10/21 01:03:44;;;;;;;33.50;20.55;;;;;;;;;;5031788;28;20030;-61
2022/10/21 01:06:10;;;;;;;33.38;22.48;;;;;;;;;;5033622;28;20013;-61
2022/10/21 01:08:36;;;;;;;42.13;23.20;;;;;;;;;;5031606;28;20057;-62
2022/10/21 01:11:01;;;;;;;38.45;24.58;;;;;;;;;;5033414;28;20056;-61
2022/10/21 01:13:38;;;;;;;39.20;23.45;;;;;;;;;;5032042;28;20060;-60
2022/10/21 01:16:09;;;;;;;28.38;21.05;;;;;;;;;;5033311;28;20143;-61
2022/10/21 01:18:51;;;;;;;36.33;24.27;;;;;;;;;;5031929;28;20128;-61
2022/10/21 01:21:29;;;;;;;37.97;22.30;;;;;;;;;;5033548;28;20029;-61
2022/10/21 01:24:13;;;;;;;32.85;21.67;;;;;;;;;;5031081;28;20095;-60
2022/10/21 01:26:57;;;;;;;28.00;20.77;;;;;;;;;;5031698;28;20029;-60
2022/10/21 01:29:22;;;;;;;29.52;21.38;;;;;;;;;;5033108;28;20021;-60
2022/10/21 01:31:50;;;;;;;35.17;22.02;;;;;;;;;;5031178;28;20124;-59
2022/10/21 01:34:22;;;;;;;35.20;24.40;;;;;;;;;;5032356;28;20469;-58
2022/10/21 01:37:00;;;;;;;32.38;22.05;;;;;;;;;;5031167;28;20095;-62
2022/10/21 01:39:34;;;;;;;39.70;23.50;;;;;;;;;;5032400;28;20017;-63
2022/10/21 01:42:02;;;;;;;47.90;25.10;;;;;;;;;;5031761;28;20030;-63
2022/10/21 01:44:41;;;;;;;35.10;24.48;;;;;;;;;;5032848;28;20131;-63
2022/10/21 01:47:27;;;;;;;31.88;20.98;;;;;;;;;;5030820;28;20424;-63
2022/10/21 01:49:54;;;;;;;36.92;22.48;;;;;;;;;;5032994;28;20014;-63
2022/10/21 01:52:19;;;;;;;34.92;21.15;;;;;;;;;;5030971;28;20083;-63
2022/10/21 01:54:46;;;;;;;40.53;24.60;;;;;;;;;;5032567;28;20025;-63
2022/10/21 01:57:14;;;;;;;36.42;23.20;;;;;;;;;;5031137;28;20103;-63
2022/10/21 01:59:40;;;;;;;35.28;22.92;;;;;;;;;;5031989;28;20396;-63
2022/10/21 02:02:06;;;;;;;34.80;25.02;;;;;;;;;;5031276;28;20040;-63
2022/10/21 02:04:32;;;;;;;38.47;24.67;;;;;;;;;;5031820;28;20025;-63
2022/10/21 02:06:58;;;;;;;32.20;24.52;;;;;;;;;;5031070;28;20113;-63
2022/10/21 02:09:23;;;;;;;36.55;27.77;;;;;;;;;;5032376;28;20101;-63
2022/10/21 02:11:50;;;;;;;33.45;21.67;;;;;;;;;;5031105;28;20029;-63
2022/10/21 02:14:18;;;;;;;41.22;25.90;;;;;;;;;;5032773;28;20036;-63
2022/10/21 02:16:44;;;;;;;41.88;24.42;;;;;;;;;;5030654;28;20496;-63
2022/10/21 02:19:12;;;;;;;38.05;22.88;;;;;;;;;;5032223;28;20043;-63
2022/10/21 02:21:37;;;;;;;41.45;24.60;;;;;;;;;;5030855;28;20025;-61
2022/10/21 02:24:10;;;;;;;41.17;26.30;;;;;;;;;;5031712;28;20025;-61
2022/10/21 02:26:35;;;;;;;44.33;26.23;;;;;;;;;;5030752;28;20028;-61
2022/10/21 02:29:00;;;;;;;50.93;27.20;;;;;;;;;;5032069;28;20010;-61
2022/10/21 02:31:29;;;;;;;50.67;28.90;;;;;;;;;;5029850;28;20385;-61
2022/10/21 02:34:12;;;;;;;42.70;27.15;;;;;;;;;;5032183;28;20017;-61
2022/10/21 02:36:47;;;;;;;43.90;26.75;;;;;;;;;;5030014;28;20044;-61
2022/10/21 02:39:17;;;;;;;42.38;27.63;;;;;;;;;;5032223;28;20028;-61
2022/10/21 02:41:43;;;;;;;52.53;29.35;;;;;;;;;;5030425;28;20033;-61
2022/10/21 02:44:08;;;;;;;46.53;29.02;;;;;;;;;;5031431;28;20079;-61
2022/10/21 02:46:35;;;;;;;44.25;27.60;;;;;;;;;;5030073;28;20021;-61
2022/10/21 02:49:00;;;;;;;48.35;27.90;;;;;;;;;;5032210;28;20100;-61
2022/10/21 02:51:25;;;;;;;44.17;28.93;;;;;;;;;;5029844;28;20063;-62
2022/10/21 02:53:51;;;;;;;52.73;29.13;;;;;;;;;;5032108;28;20060;-62
2022/10/21 02:56:16;;;;;;;47.75;30.42;;;;;;;;;;5031523;28;20036;-62
2022/10/21 02:58:41;;;;;;;51.60;29.63;;;;;;;;;;5028569;28;20037;-62
2022/10/21 03:01:06;;;;;;;58.88;31.83;;;;;;;;;;5031408;28;20453;-62
2022/10/21 03:03:31;;;;;;;147.33;31.00;;;;;;;;;;5029499;28;20037;-62
2022/10/21 03:05:56;;;;;;;71.23;22.00;;;;;;;;;;5031531;28;20496;-62
2022/10/21 03:08:21;;;;;;;102.97;27.50;;;;;;;;;;5029678;28;20034;-62
2022/10/21 03:10:47;;;;;;;59.22;26.80;;;;;;;;;;5031473;28;20017;-62
2022/10/21 03:13:12;;;;;;;50.78;30.27;;;;;;;;;;5029692;28;20034;-62
2022/10/21 03:15:37;;;;;;;56.67;30.93;;;;;;;;;;5031294;28;20086;-61
2022/10/21 03:18:03;;;;;;;56.65;32.95;;;;;;;;;;5029782;28;20052;-61
2022/10/21 03:20:28;;;;;;;62.15;34.38;;;;;;;;;;5031269;28;20100;-61
2022/10/21 03:22:53;;;;;;;73.53;35.35;;;;;;;;;;5029688;28;20037;-61
2022/10/21 03:25:18;;;;;;;56.80;35.22;;;;;;;;;;5031069;28;20492;-62
2022/10/21 03:27:43;;;;;;;72.75;33.97;;;;;;;;;;5029212;28;20034;-62
2022/10/21 03:30:09;;;;;;;57.42;33.38;;;;;;;;;;5030873;28;20066;-59
2022/10/21 03:32:34;;;;;;;55.08;34.10;;;;;;;;;;5029635;28;20531;-59
2022/10/21 03:34:59;;;;;;;59.33;30.70;;;;;;;;;;5030634;28;20505;-62
2022/10/21 03:37:24;;;;;;;63.27;34.03;;;;;;;;;;5029010;28;20041;-62
2022/10/21 03:39:49;;;;;;;59.80;31.90;;;;;;;;;;5031118;28;20109;-60
2022/10/21 03:42:15;;;;;;;49.13;29.55;;;;;;;;;;5029363;28;20549;-61
2022/10/21 03:44:40;;;;;;;63.30;33.77;;;;;;;;;;5030374;28;20029;-61
2022/10/21 03:47:05;;;;;;;54.58;31.35;;;;;;;;;;5029477;28;20064;-61
2022/10/21 03:49:30;;;;;;;56.25;31.98;;;;;;;;;;5031005;28;20021;-61
2022/10/21 03:51:56;;;;;;;47.83;30.33;;;;;;;;;;5029545;28;20029;-61
2022/10/21 03:54:21;;;;;;;48.22;33.15;;;;;;;;;;5030600;28;20025;-61
2022/10/21 03:56:46;;;;;;;50.55;30.77;;;;;;;;;;5028813;28;20060;-62
2022/10/21 03:59:11;;;;;;;57.90;30.25;;;;;;;;;;5030629;28;20022;-61
2022/10/21 04:01:36;;;;;;;58.27;30.23;;;;;;;;;;5029209;28;20021;-62
2022/10/21 04:04:02;;;;;;;49.47;30.00;;;;;;;;;;5030916;28;20391;-63
2022/10/21 04:06:27;;;;;;;47.58;30.38;;;;;;;;;;5028879;28;20021;-63
2022/10/21 04:08:52;;;;;;;43.23;29.10;;;;;;;;;;5031012;28;20462;-63
2022/10/21 04:11:17;;;;;;;46.08;26.67;;;;;;;;;;5034573;28;20436;-63
2022/10/21 04:13:42;;;;;;;53.35;29.48;;;;;;;;;;5032583;28;20392;-63
2022/10/21 04:16:11;;;;;;;54.13;28.52;;;;;;;;;;5034822;28;20026;-63
2022/10/21 04:18:36;;;;;;;42.67;27.25;;;;;;;;;;5033033;28;20041;-62
2022/10/21 04:21:02;;;;;;;47.40;24.87;;;;;;;;;;5034835;28;20075;-62
2022/10/21 04:23:27;;;;;;;49.00;29.25;;;;;;;;;;5032362;28;20460;-61
2022/10/21 04:25:52;;;;;;;50.93;28.80;;;;;;;;;;5034480;28;20025;-61
2022/10/21 04:28:17;;;;;;;52.83;26.73;;;;;;;;;;5032499;28;20041;-61
2022/10/21 04:30:42;;;;;;;49.17;24.42;;;;;;;;;;5034342;28;20095;-61
2022/10/21 04:33:08;;;;;;;39.53;25.75;;;;;;;;;;5033173;28;20061;-61
2022/10/21 04:35:33;;;;;;;47.70;29.10;;;;;;;;;;5033803;28;20049;-61
2022/10/21 04:37:59;;;;;;;54.03;29.60;;;;;;;;;;5032714;28;20041;-61
2022/10/21 04:40:24;;;;;;;51.63;29.63;;;;;;;;;;5034187;28;20017;-61
2022/10/21 04:42:49;;;;;;;47.22;27.98;;;;;;;;;;5032406;28;20041;-61
2022/10/21 04:45:17;;;;;;;42.17;27.87;;;;;;;;;;5033986;28;20026;-61
2022/10/21 04:47:43;;;;;;;46.55;28.45;;;;;;;;;;5032522;28;20029;-61
2022/10/21 04:50:08;;;;;;;46.40;29.90;;;;;;;;;;5033541;28;20021;-61
2022/10/21 04:52:33;;;;;;;55.28;30.63;;;;;;;;;;5032320;28;20029;-61
2022/10/21 04:54:58;;;;;;;44.43;28.87;;;;;;;;;;5033655;28;20061;-60
2022/10/21 04:57:24;;;;;;;50.23;28.27;;;;;;;;;;5032179;28;20037;-61
2022/10/21 04:59:49;;;;;;;45.07;28.50;;;;;;;;;;5034174;28;20942;-61
2022/10/21 05:02:14;;;;;;;44.53;29.42;;;;;;;;;;5032397;28;20116;-61
2022/10/21 05:04:39;;;;;;;52.77;28.03;;;;;;;;;;5033279;28;20037;-62
2022/10/21 05:07:04;;;;;;;43.47;27.88;;;;;;;;;;5032088;28;20531;-62
2022/10/21 05:09:29;;;;;;;56.20;31.80;;;;;;;;;;5032762;28;20075;-62
2022/10/21 05:11:54;;;;;;;54.23;29.27;;;;;;;;;;5032117;28;20392;-61
2022/10/21 05:14:20;;;;;;;47.37;28.23;;;;;;;;;;5033322;28;20076;-62
2022/10/21 05:16:45;;;;;;;44.55;29.70;;;;;;;;;;5032209;28;20049;-62
2022/10/21 05:19:10;;;;;;;47.67;28.58;;;;;;;;;;5033723;28;20048;-63
2022/10/21 05:21:35;;;;;;;36.13;24.67;;;;;;;;;;5030500;28;20075;-62
2022/10/21 05:24:00;;;;;;;45.55;27.88;;;;;;;;;;5033273;28;20025;-62
2022/10/21 05:26:27;;;;;;;41.42;26.98;;;;;;;;;;5031485;28;20105;-62
2022/10/21 05:28:52;;;;;;;33.53;24.65;;;;;;;;;;5033401;28;20017;-62
2022/10/21 05:31:18;;;;;;;36.10;25.00;;;;;;;;;;5033371;28;20032;-63
2022/10/21 05:33:43;;;;;;;47.20;28.17;;;;;;;;;;5031664;28;20030;-63
2022/10/21 05:36:08;;;;;;;41.67;25.10;;;;;;;;;;5032545;28;20049;-63
2022/10/21 05:38:33;;;;;;;34.37;23.37;;;;;;;;;;5031445;28;20041;-62
2022/10/21 05:40:58;;;;;;;37.75;23.83;;;;;;;;;;5032913;28;20444;-62
2022/10/21 05:43:24;;;;;;;32.45;24.10;;;;;;;;;;5031082;28;20088;-62
2022/10/21 05:45:49;;;;;;;34.15;23.58;;;;;;;;;;5032437;28;20416;-62
2022/10/21 05:48:17;;;;;;;40.60;24.17;;;;;;;;;;5031547;28;20183;-62
2022/10/21 05:50:42;;;;;;;38.47;24.77;;;;;;;;;;5031588;28;20116;-63
2022/10/21 05:53:07;;;;;;;42.38;24.13;;;;;;;;;;5031204;28;20600;-64
2022/10/21 05:55:32;;;;;;;36.28;22.20;;;;;;;;;;5030216;28;20029;-64
2022/10/21 05:57:57;;;;;;;33.00;21.45;;;;;;;;;;5030630;28;20513;-63
2022/10/21 06:00:22;;;;;;;37.13;21.97;;;;;;;;;;5031572;28;20013;-63
2022/10/21 06:02:48;;;;;;;40.72;23.10;;;;;;;;;;5030422;28;20091;-59
2022/10/21 06:05:13;;;;;;;36.45;23.85;;;;;;;;;;5031755;28;20362;-57
2022/10/21 06:07:38;;;;;;;43.27;26.47;;;;;;;;;;5030452;28;20038;-59
2022/10/21 06:10:04;;;;;;;38.70;23.30;;;;;;;;;;5031782;28;20858;-60
2022/10/21 06:12:29;;;;;;;46.65;27.25;;;;;;;;;;5029691;28;20519;-59
2022/10/21 06:14:54;;;;;;;35.33;22.42;;;;;;;;;;5032702;28;20021;-60
2022/10/21 06:17:19;;;;;;;39.25;23.00;;;;;;;;;;5030700;28;20072;-59
2022/10/21 06:19:44;;;;;;;37.63;24.70;;;;;;;;;;5031878;28;20024;-61
2022/10/21 06:22:10;;;;;;;41.00;23.30;;;;;;;;;;5030268;28;20452;-61
2022/10/21 06:24:35;;;;;;;47.03;25.33;;;;;;;;;;5031139;28;20028;-59
2022/10/21 06:27:00;;;;;;;54.58;24.25;;;;;;;;;;5030656;28;20504;-59
2022/10/21 06:29:26;;;;;;;45.10;25.93;;;;;;;;;;5032153;28;20395;-59
2022/10/21 06:31:51;;;;;;;44.03;26.25;;;;;;;;;;5029737;28;20041;-58
2022/10/21 06:34:16;;;;;;;48.53;27.40;;;;;;;;;;5031520;28;20030;-57
2022/10/21 06:36:42;;;;;;;52.13;27.37;;;;;;;;;;5030292;28;20049;-58
2022/10/21 06:39:07;;;;;;;45.03;24.70;;;;;;;;;;5032218;28;20428;-59
2022/10/21 06:41:32;;;;;;;41.40;26.50;;;;;;;;;;5029891;28;20064;-58
2022/10/21 06:43:58;;;;;;;48.65;27.48;;;;;;;;;;5031646;28;20355;-58
2022/10/21 06:46:23;;;;;;;39.87;24.67;;;;;;;;;;5029858;28;20041;-58
2022/10/21 06:48:48;;;;;;;41.90;26.00;;;;;;;;;;5031227;28;20062;-57
2022/10/21 06:51:18;;;;;;;41.47;25.08;;;;;;;;;;5031635;28;20021;-58
2022/10/21 06:53:43;;;;;;;52.08;27.27;;;;;;;;;;5029952;28;20029;-58
2022/10/21 06:56:10;;;;;;;50.58;28.25;;;;;;;;;;5031495;28;20100;-58
2022/10/21 06:58:36;;;;;;;36.97;21.73;;;;;;;;;;5028615;28;20048;-58
2022/10/21 07:01:08;;;;;;;50.70;27.98;;;;;;;;;;5029388;28;20033;-58
2022/10/21 07:03:33;;;;;;;48.45;26.92;;;;;;;;;;5028087;28;20033;-58
2022/10/21 07:05:59;;;;;;;46.15;26.75;;;;;;;;;;5030862;28;20416;-58
2022/10/21 07:08:25;;;;;;;46.70;24.77;;;;;;;;;;5027677;28;20025;-58
2022/10/21 07:10:50;;;;;;;57.92;27.33;;;;;;;;;;5028470;28;20021;-58
2022/10/21 07:13:15;;;;;;;40.47;24.20;;;;;;;;;;5028491;28;20378;-58
2022/10/21 07:15:40;;;;;;;36.72;24.10;;;;;;;;;;5029409;28;20021;-58
2022/10/21 07:18:05;;;;;;;49.67;26.17;;;;;;;;;;5028677;28;20044;-58
2022/10/21 07:20:32;;;;;;;38.63;23.58;;;;;;;;;;5029640;28;20981;-58
2022/10/21 07:22:57;;;;;;;40.67;24.13;;;;;;;;;;5031379;28;20116;-58
2022/10/21 07:25:22;;;;;;;37.87;22.97;;;;;;;;;;5046527;28;20101;-58
2022/10/21 07:27:47;;;;;;;43.63;22.25;;;;;;;;;;5029225;28;20026;-58
2022/10/21 07:30:13;;;;;;;34.40;20.77;;;;;;;;;;5030387;28;20032;-58
2022/10/21 07:32:38;;;;;;;28.70;19.00;;;;;;;;;;5027808;28;20555;-58
2022/10/21 07:35:03;;;;;;;49.65;22.70;;;;;;;;;;5029929;28;21006;-58
2022/10/21 07:37:28;;;;;;;44.00;22.05;;;;;;;;;;5028930;28;20516;-58
2022/10/21 07:39:53;;;;;;;25.90;19.67;;;;;;;;;;5027932;28;20071;-57
2022/10/21 07:42:19;;;;;;;28.10;19.30;;;;;;;;;;5028024;28;20064;-58
2022/10/21 07:44:44;;;;;;;25.77;18.02;;;;;;;;;;5028817;28;20032;-58
2022/10/21 07:47:09;;;;;;;26.83;17.98;;;;;;;;;;5027701;28;20022;-57
2022/10/21 07:49:34;;;;;;;27.20;19.43;;;;;;;;;;5029715;28;20465;-58
2022/10/21 07:51:59;;;;;;;22.75;15.27;;;;;;;;;;5030070;28;20467;-58
2022/10/21 07:54:25;;;;;;;27.47;16.73;;;;;;;;;;5027441;28;20037;-57
2022/10/21 07:56:50;;;;;;;22.08;18.15;;;;;;;;;;5029510;28;20025;-58
2022/10/21 07:59:16;;;;;;;25.02;16.95;;;;;;;;;;5027793;28;20045;-58
2022/10/21 08:01:43;;;;;;;21.48;15.85;;;;;;;;;;5028581;28;20034;-58
2022/10/21 08:04:08;;;;;;;17.45;14.25;;;;;;;;;;5028028;28;20044;-58
2022/10/21 08:06:33;;;;;;;27.42;13.63;;;;;;;;;;5029223;28;20021;-58
2022/10/21 08:09:00;;;;;;;16.90;13.27;;;;;;;;;;5027774;28;20030;-58
2022/10/21 08:11:26;;;;;;;20.48;13.07;;;;;;;;;;5028993;28;20380;-58
2022/10/21 08:13:52;;;;;;;16.40;10.57;;;;;;;;;;5028906;28;20025;-58
2022/10/21 08:16:17;;;;;;;21.98;13.43;;;;;;;;;;5028244;28;20100;-58
2022/10/21 08:18:42;;;;;;;17.33;11.50;;;;;;;;;;5027697;28;20029;-58
2022/10/21 08:21:08;;;;;;;18.83;13.17;;;;;;;;;;5029972;28;20037;-58
2022/10/21 08:23:34;;;;;;;12.00;10.13;;;;;;;;;;5027677;28;20034;-58
2022/10/21 08:26:00;;;;;;;15.52;11.10;;;;;;;;;;5029694;28;20021;-58
2022/10/21 08:28:26;;;;;;;17.92;13.13;;;;;;;;;;5027447;28;20030;-57
2022/10/21 08:30:51;;;;;;;11.38;9.63;;;;;;;;;;5028809;28;20140;-58
2022/10/21 08:33:16;;;;;;;14.73;11.27;;;;;;;;;;5028302;28;20554;-58
2022/10/21 08:35:42;;;;;;;17.42;11.32;;;;;;;;;;5029604;28;20053;-58
2022/10/21 08:38:07;;;;;;;18.67;10.30;;;;;;;;;;5027461;28;20042;-58
2022/10/21 08:40:37;;;;;;;19.52;12.48;;;;;;;;;;5029099;28;20096;-58
2022/10/21 08:43:06;;;;;;;11.70;9.18;;;;;;;;;;5028742;28;20072;-58
2022/10/21 08:45:36;;;;;;;19.83;10.07;;;;;;;;;;5028006;28;20021;-58
2022/10/21 08:48:04;;;;;;;14.32;9.07;;;;;;;;;;5027890;28;20090;-58
2022/10/21 08:50:34;;;;;;;16.38;9.45;;;;;;;;;;5034382;28;20025;-58
2022/10/21 08:53:11;;;;;;;9.63;8.68;;;;;;;;;;5027098;28;20417;-58
2022/10/21 08:55:38;;;;;;;18.58;9.85;;;;;;;;;;5029045;28;20025;-58
2022/10/21 08:58:04;;;;;;;11.17;10.03;;;;;;;;;;5031057;28;20123;-57
2022/10/21 09:00:32;;;;;;;11.27;9.00;;;;;;;;;;5031866;28;20080;-58
2022/10/21 09:02:57;;;;;;;17.52;8.55;;;;;;;;;;5031372;28;20041;-58
2022/10/21 09:05:32;;;;;;;16.77;10.35;;;;;;;;;;5032771;28;20055;-58
2022/10/21 09:08:02;;;;;;;9.95;7.57;;;;;;;;;;5031061;28;20025;-58
2022/10/21 09:10:30;;;;;;;12.20;8.52;;;;;;;;;;5031181;28;20018;-58
2022/10/21 09:13:01;;;;;;;16.10;7.72;;;;;;;;;;5051665;28;20403;-58
2022/10/21 09:15:30;;;;;;;13.45;8.35;;;;;;;;;;5041450;28;20028;-58
2022/10/21 09:18:01;;;;;;;15.57;9.30;;;;;;;;;;5031354;28;20041;-58
2022/10/21 09:20:49;;;;;;;12.43;6.80;;;;;;;;;;5032677;28;20057;-58
2022/10/21 09:23:29;;;;;;;15.82;7.68;;;;;;;;;;5030502;28;20045;-58
2022/10/21 09:26:00;;;;;;;8.45;6.22;;;;;;;;;;5032354;28;20152;-58
2022/10/21 09:28:26;;;;;;;12.95;6.78;;;;;;;;;;5030400;28;20111;-58
2022/10/21 09:30:51;;;;;;;9.25;6.88;;;;;;;;;;5031637;28;20461;-57
2022/10/21 09:33:24;;;;;;;16.70;8.13;;;;;;;;;;5030223;28;20501;-56
2022/10/21 09:35:58;;;;;;;11.85;6.75;;;;;;;;;;5031654;28;20054;-57
2022/10/21 09:38:29;;;;;;;9.43;6.97;;;;;;;;;;5028528;28;20048;-57
2022/10/21 09:41:01;;;;;;;7.70;6.38;;;;;;;;;;5032823;28;20027;-58
2022/10/21 09:43:27;;;;;;;7.63;5.88;;;;;;;;;;5030261;28;20447;-60
2022/10/21 09:45:52;;;;;;;15.00;6.80;;;;;;;;;;5031478;28;20017;-57
2022/10/21 09:48:20;;;;;;;10.45;6.75;;;;;;;;;;5030909;28;20448;-57
2022/10/21 09:50:53;;;;;;;7.63;6.00;;;;;;;;;;5031510;28;20025;-58
2022/10/21 09:53:18;;;;;;;12.30;5.30;;;;;;;;;;5030659;28;20042;-58
2022/10/21 09:55:45;;;;;;;12.18;7.43;;;;;;;;;;5032217;28;20084;-58
2022/10/21 09:58:22;;;;;;;8.70;6.05;;;;;;;;;;5030842;28;20041;-58
2022/10/21 10:00:48;;;;;;;9.45;5.85;;;;;;;;;;5030870;28;20026;-57
2022/10/21 10:03:33;;;;;;;13.45;6.88;;;;;;;;;;5030805;28;20072;-57
2022/10/21 10:05:59;;;;;;;17.70;7.05;;;;;;;;;;5031100;28;20471;-57
2022/10/21 10:08:27;;;;;;;9.77;5.63;;;;;;;;;;5028848;28;20061;-57
2022/10/21 10:11:07;;;;;;;16.30;7.93;;;;;;;;;;5032061;28;20013;-57
2022/10/21 10:13:33;;;;;;;9.60;6.18;;;;;;;;;;5030674;28;20044;-57
2022/10/21 10:16:11;;;;;;;11.75;7.28;;;;;;;;;;5031373;28;20397;-57
2022/10/21 10:18:36;;;;;;;17.85;7.47;;;;;;;;;;5030145;28;20091;-57
2022/10/21 10:21:21;;;;;;;9.63;6.35;;;;;;;;;;5031864;28;20029;-58
2022/10/21 10:23:47;;;;;;;11.75;6.90;;;;;;;;;;5022451;28;20045;-57
2022/10/21 10:26:25;;;;;;;12.20;7.18;;;;;;;;;;5031117;28;20028;-58
2022/10/21 10:28:52;;;;;;;8.98;6.93;;;;;;;;;;5030381;28;20071;-57
2022/10/21 10:31:24;;;;;;;10.63;6.57;;;;;;;;;;5031224;28;20021;-58
2022/10/21 10:33:54;;;;;;;14.93;6.35;;;;;;;;;;5029970;28;20075;-57
2022/10/21 10:36:25;;;;;;;10.50;6.15;;;;;;;;;;5029543;28;20122;-58
2022/10/21 10:38:54;;;;;;;10.65;6.10;;;;;;;;;;5031039;28;20017;-57
2022/10/21 10:41:19;;;;;;;17.95;7.35;;;;;;;;;;5030315;28;20017;-57
2022/10/21 10:43:46;;;;;;;12.68;8.27;;;;;;;;;;5031821;28;20013;-57
2022/10/21 10:46:23;;;;;;;10.93;7.57;;;;;;;;;;5031336;28;20129;-57
2022/10/21 10:48:49;;;;;;;9.93;6.75;;;;;;;;;;5029957;28;20049;-58
2022/10/21 10:51:28;;;;;;;9.88;6.63;;;;;;;;;;5031255;28;20021;-57
2022/10/21 10:53:58;;;;;;;9.48;6.03;;;;;;;;;;5029407;28;20073;-57
2022/10/21 10:56:26;;;;;;;13.63;6.78;;;;;;;;;;5029790;28;20017;-57
2022/10/21 10:58:55;;;;;;;13.50;7.25;;;;;;;;;;5031539;28;20022;-57
2022/10/21 11:01:25;;;;;;;11.05;6.50;;;;;;;;;;5029610;28;20096;-58
2022/10/21 11:03:53;;;;;;;15.38;6.43;;;;;;;;;;5031642;28;20033;-58
2022/10/21 11:06:26;;;;;;;13.68;5.50;;;;;;;;;;5029305;28;20063;-56
2022/10/21 11:08:54;;;;;;;17.30;6.75;;;;;;;;;;5016354;28;20024;-58
2022/10/21 11:11:19;;;;;;;10.63;6.13;;;;;;;;;;5029762;28;20021;-57
2022/10/21 11:13:44;;;;;;;10.82;6.25;;;;;;;;;;5030246;28;20439;-57
2022/10/21 11:16:24;;;;;;;8.87;7.07;;;;;;;;;;5030524;28;20029;-57
2022/10/21 11:18:55;;;;;;;8.85;6.00;;;;;;;;;;5027588;28;20619;-57
2022/10/21 11:21:39;;;;;;;8.90;6.53;;;;;;;;;;5029860;28;20033;-58
2022/10/21 11:24:17;;;;;;;5.82;5.05;;;;;;;;;;5029606;28;20154;-57
2022/10/21 11:26:52;;;;;;;18.48;7.70;;;;;;;;;;5028539;28;20497;-58
2022/10/21 11:29:23;;;;;;;8.48;5.38;;;;;;;;;;5030999;28;20017;-58
2022/10/21 11:32:03;;;;;;;12.73;7.50;;;;;;;;;;5028580;28;20454;-58
2022/10/21 11:34:39;;;;;;;8.25;6.50;;;;;;;;;;5028802;28;20491;-57
2022/10/21 11:37:31;;;;;;;11.02;7.25;;;;;;;;;;5028435;28;20038;-58
2022/10/21 11:39:59;;;;;;;8.32;6.25;;;;;;;;;;5011195;28;20470;-58
2022/10/21 11:42:30;;;;;;;10.50;6.45;;;;;;;;;;5016955;28;20583;-58
2022/10/21 11:45:10;;;;;;;12.73;7.97;;;;;;;;;;5029652;28;20045;-58
2022/10/21 11:47:50;;;;;;;14.02;7.18;;;;;;;;;;5028498;28;20038;-59
2022/10/21 11:50:18;;;;;;;8.30;6.22;;;;;;;;;;5029948;28;20465;-58
2022/10/21 11:52:46;;;;;;;7.95;5.72;;;;;;;;;;5027009;28;20036;-60
2022/10/21 11:55:30;;;;;;;9.93;5.93;;;;;;;;;;5029933;28;20037;-58
2022/10/21 11:57:55;;;;;;;15.75;7.50;;;;;;;;;;5028326;28;20038;-58
2022/10/21 12:00:25;;;;;;;15.43;7.88;;;;;;;;;;5020658;28;20036;-58
2022/10/21 12:03:08;;;;;;;10.43;6.25;;;;;;;;;;5031869;28;21510;-58
2022/10/21 12:05:37;;;;;;;16.67;8.40;;;;;;;;;;5023523;28;20088;-58
2022/10/21 12:08:10;;;;;;;9.32;6.10;;;;;;;;;;5027804;28;20038;-58
2022/10/21 12:10:56;;;;;;;14.02;7.43;;;;;;;;;;5029627;28;20545;-58
2022/10/21 12:13:24;;;;;;;10.48;7.53;;;;;;;;;;5028148;28;20041;-58
2022/10/21 12:15:53;;;;;;;12.00;8.35;;;;;;;;;;5027740;28;20030;-58
2022/10/21 12:18:20;;;;;;;12.70;7.43;;;;;;;;;;5036988;28;20128;-58
2022/10/21 12:20:47;;;;;;;13.25;7.03;;;;;;;;;;5046108;28;20461;-57
2022/10/21 12:23:15;;;;;;;9.60;7.25;;;;;;;;;;5028204;28;20037;-58
2022/10/21 12:25:51;;;;;;;10.43;8.13;;;;;;;;;;5026849;28;20048;-58
2022/10/21 12:28:24;;;;;;;12.90;7.07;;;;;;;;;;5024909;28;20041;-58
2022/10/21 12:31:00;;;;;;;15.38;8.13;;;;;;;;;;5031361;28;20025;-58
2022/10/21 12:33:36;;;;;;;13.45;8.57;;;;;;;;;;5032122;28;20030;-57
2022/10/21 12:36:16;;;;;;;10.48;7.30;;;;;;;;;;5032899;28;20470;-58
2022/10/21 12:38:44;;;;;;;13.40;8.93;;;;;;;;;;5022610;28;20835;-58
2022/10/21 12:41:24;;;;;;;11.20;7.80;;;;;;;;;;5033661;28;20095;-58
2022/10/21 12:43:55;;;;;;;9.20;7.43;;;;;;;;;;5030949;28;20041;-58
2022/10/21 12:46:26;;;;;;;13.23;8.02;;;;;;;;;;5032445;28;20511;-58
2022/10/21 12:48:51;;;;;;;14.18;8.90;;;;;;;;;;5033190;28;20010;-58
2022/10/21 12:51:24;;;;;;;13.80;7.28;;;;;;;;;;5032911;28;20064;-58
2022/10/21 12:53:52;;;;;;;10.05;7.88;;;;;;;;;;5023332;28;20129;-58
2022/10/21 12:56:26;;;;;;;12.30;9.35;;;;;;;;;;5032532;28;20051;-54
2022/10/21 12:58:55;;;;;;;11.07;8.57;;;;;;;;;;5033080;28;20477;-58
2022/10/21 13:01:39;;;;;;;13.07;7.72;;;;;;;;;;5030562;28;20025;-58
2022/10/21 13:04:24;;;;;;;16.05;5.72;;;;;;;;;;5028810;28;20025;-58
2022/10/21 13:06:51;;;;;;;9.15;6.28;;;;;;;;;;5031359;28;20053;-58
2022/10/21 13:09:35;;;;;;;24.35;7.93;;;;;;;;;;5032690;28;20021;-58
2022/10/21 13:12:03;;;;;;;7.80;6.10;;;;;;;;;;5031697;28;20515;-58
2022/10/21 13:14:36;;;;;;;13.95;6.15;;;;;;;;;;5031866;28;20496;-58
2022/10/21 13:17:19;;;;;;;12.80;7.28;;;;;;;;;;5021567;28;20038;-58
2022/10/21 13:19:45;;;;;;;12.52;6.75;;;;;;;;;;5021720;28;20025;-58
2022/10/21 13:22:20;;;;;;;13.00;6.68;;;;;;;;;;5030926;28;20045;-58
2022/10/21 13:24:46;;;;;;;22.98;7.03;;;;;;;;;;5026417;28;20045;-58
2022/10/21 13:27:31;;;;;;;11.60;7.40;;;;;;;;;;5031448;28;20037;-58
2022/10/21 13:29:57;;;;;;;10.05;4.57;;;;;;;;;;5032054;28;20049;-58
2022/10/21 13:32:24;;;;;;;5.82;5.15;;;;;;;;;;5029004;28;20076;-57
2022/10/21 13:34:49;;;;;;;20.42;7.80;;;;;;;;;;5031590;28;20446;-58
2022/10/21 13:37:15;;;;;;;8.35;5.15;;;;;;;;;;5030364;28;20508;-58
2022/10/21 13:39:41;;;;;;;8.60;5.40;;;;;;;;;;5032569;28;20025;-58
2022/10/21 13:42:09;;;;;;;6.00;4.22;;;;;;;;;;5031166;28;20553;-57
2022/10/21 13:44:39;;;;;;;10.95;4.85;;;;;;;;;;5031944;28;20538;-58
2022/10/21 13:47:17;;;;;;;11.40;5.10;;;;;;;;;;5031070;28;20056;-58
2022/10/21 13:49:42;;;;;;;;;;;;;;;;;;5031864;28;20086;-57
2022/10/21 13:52:09;;;;;;;12.48;5.28;;;;;;;;;;5030169;28;19917;-58
2022/10/21 13:54:35;;;;;;;21.92;7.72;;;;;;;;;;5031115;28;20025;-58
2022/10/21 13:57:04;;;;;;;11.23;6.07;;;;;;;;;;5030781;28;20045;-58
2022/10/21 13:59:31;;;;;;;10.32;4.68;;;;;;;;;;5029977;28;20104;-58
2022/10/21 14:01:56;;;;;;;13.65;5.32;;;;;;;;;;5030822;28;20083;-58
2022/10/21 14:04:23;;;;;;;7.00;3.85;;;;;;;;;;5031944;28;20022;-58
2022/10/21 14:06:51;;;;;;;9.65;4.72;;;;;;;;;;5030141;28;20728;-57
2022/10/21 14:09:26;;;;;;;8.40;4.57;;;;;;;;;;5028481;28;20021;-58
2022/10/21 14:11:52;;;;;;;10.50;6.15;;;;;;;;;;5031111;28;20037;-57
2022/10/21 14:14:19;;;;;;;8.45;6.63;;;;;;;;;;5030863;28;20029;-58
2022/10/21 14:16:50;;;;;;;13.25;7.03;;;;;;;;;;5029425;28;20029;-58
2022/10/21 14:19:20;;;;;;;9.70;4.70;;;;;;;;;;5031704;28;20022;-58
2022/10/21 14:21:46;;;;;;;5.78;4.10;;;;;;;;;;5029749;28;20038;-57
2022/10/21 14:24:38;;;;;;;8.82;4.93;;;;;;;;;;5031573;28;20098;-57
2022/10/21 14:27:03;;;;;;;11.43;4.22;;;;;;;;;;5025703;28;20381;-57
2022/10/21 14:29:32;;;;;;;13.70;4.57;;;;;;;;;;5028268;28;20021;-58